sensor_id;sensor_type;location;lat;lon;timestamp;temperature;humidity
21261;DHT22;10788;47.930;9.766;2022-09-09T00:05:28;14.20;99.90
21261;DHT22;10788;47.930;9.766;2022-09-09T00:07:44;14.10;99.90
21261;DHT22;10788;47.930;9.766;2022-09-09T00:10:28;14.10;99.90
21261;DHT22;10788;47.930;9.766;2022-09-09T00:15:52;14.10;99.90
21261;DHT22;10788;47.930;9.766;2022-09-09T00:21:16;14.00;99.90
21261;DHT22;10788;47.930;9.766;2022-09-09T00:23:51;13.90;99.90
21261;DHT22;10788;47.930;9.766;2022-09-09T00:26:35;14.00;99.90
21261;DHT22;10788;47.930;9.766;2022-09-09T00:31:38;14.00;99.90
21261;DHT22;10788;47.930;9.766;2022-09-09T00:34:14;13.90;99.90
21261;DHT22;10788;47.930;9.766;2022-09-09T00:36:41;13.90;99.90
21261;DHT22;10788;47.930;9.766;2022-09-09T00:39:18;13.90;99.90
21261;DHT22;10788;47.930;9.766;2022-09-09T00:44:34;13.90;99.90
21261;DHT22;10788;47.930;9.766;2022-09-09T00:55:16;14.00;99.90
21261;DHT22;10788;47.930;9.766;2022-09-09T00:57:44;13.90;99.90
21261;DHT22;10788;47.930;9.766;2022-09-09T01:08:02;13.90;99.90
21261;DHT22;10788;47.930;9.766;2022-09-09T01:13:05;13.80;99.90
21261;DHT22;10788;47.930;9.766;2022-09-09T01:15:39;13.70;99.90
21261;DHT22;10788;47.930;9.766;2022-09-09T01:18:12;13.70;99.90
21261;DHT22;10788;47.930;9.766;2022-09-09T01:26:04;13.70;99.90
21261;DHT22;10788;47.930;9.766;2022-09-09T01:28:34;13.70;99.90
21261;DHT22;10788;47.930;9.766;2022-09-09T01:31:04;13.70;99.90
21261;DHT22;10788;47.930;9.766;2022-09-09T01:33:31;13.50;99.90
21261;DHT22;10788;47.930;9.766;2022-09-09T01:38:34;13.60;99.90
21261;DHT22;10788;47.930;9.766;2022-09-09T01:41:01;13.70;99.90
21261;DHT22;10788;47.930;9.766;2022-09-09T01:43:27;13.60;99.90
21261;DHT22;10788;47.930;9.766;2022-09-09T01:45:55;13.50;99.90
21261;DHT22;10788;47.930;9.766;2022-09-09T01:48:22;13.60;99.90
21261;DHT22;10788;47.930;9.766;2022-09-09T01:50:49;13.40;99.90
21261;DHT22;10788;47.930;9.766;2022-09-09T01:53:17;13.50;99.90
21261;DHT22;10788;47.930;9.766;2022-09-09T01:58:47;13.50;99.90
21261;DHT22;10788;47.930;9.766;2022-09-09T02:01:34;13.50;99.90
21261;DHT22;10788;47.930;9.766;2022-09-09T02:04:08;13.50;99.90
21261;DHT22;10788;47.930;9.766;2022-09-09T02:06:40;13.50;99.90
21261;DHT22;10788;47.930;9.766;2022-09-09T02:09:07;13.50;99.90
21261;DHT22;10788;47.930;9.766;2022-09-09T02:11:35;13.50;99.90
21261;DHT22;10788;47.930;9.766;2022-09-09T02:14:12;13.50;99.90
21261;DHT22;10788;47.930;9.766;2022-09-09T02:16:42;13.40;99.90
21261;DHT22;10788;47.930;9.766;2022-09-09T02:21:43;13.40;99.90
21261;DHT22;10788;47.930;9.766;2022-09-09T02:24:11;13.40;99.90
21261;DHT22;10788;47.930;9.766;2022-09-09T02:26:41;13.30;99.90
21261;DHT22;10788;47.930;9.766;2022-09-09T02:29:22;13.30;99.90
21261;DHT22;10788;47.930;9.766;2022-09-09T02:31:49;13.30;99.90
21261;DHT22;10788;47.930;9.766;2022-09-09T02:34:18;13.40;99.90
21261;DHT22;10788;47.930;9.766;2022-09-09T02:36:46;13.30;99.90
21261;DHT22;10788;47.930;9.766;2022-09-09T02:39:12;13.30;99.90
21261;DHT22;10788;47.930;9.766;2022-09-09T02:41:40;13.30;99.90
21261;DHT22;10788;47.930;9.766;2022-09-09T02:44:14;13.30;99.90
21261;DHT22;10788;47.930;9.766;2022-09-09T02:49:47;13.30;99.90
21261;DHT22;10788;47.930;9.766;2022-09-09T02:52:20;13.30;99.90
21261;DHT22;10788;47.930;9.766;2022-09-09T02:54:50;13.30;99.90
21261;DHT22;10788;47.930;9.766;2022-09-09T02:57:27;13.20;99.90
21261;DHT22;10788;47.930;9.766;2022-09-09T02:59:53;13.30;99.90
21261;DHT22;10788;47.930;9.766;2022-09-09T03:02:20;13.30;99.90
21261;DHT22;10788;47.930;9.766;2022-09-09T03:04:46;13.30;99.90
21261;DHT22;10788;47.930;9.766;2022-09-09T03:07:16;13.30;99.90
21261;DHT22;10788;47.930;9.766;2022-09-09T03:09:42;13.40;99.90
21261;DHT22;10788;47.930;9.766;2022-09-09T03:12:08;13.40;99.90
21261;DHT22;10788;47.930;9.766;2022-09-09T03:14:36;13.50;99.90
21261;DHT22;10788;47.930;9.766;2022-09-09T03:17:06;13.50;99.90
21261;DHT22;10788;47.930;9.766;2022-09-09T03:19:32;13.50;99.90
21261;DHT22;10788;47.930;9.766;2022-09-09T03:21:58;13.50;99.90
21261;DHT22;10788;47.930;9.766;2022-09-09T03:24:24;13.60;99.90
21261;DHT22;10788;47.930;9.766;2022-09-09T03:26:50;13.60;99.90
21261;DHT22;10788;47.930;9.766;2022-09-09T03:29:16;13.60;99.90
21261;DHT22;10788;47.930;9.766;2022-09-09T03:31:42;13.50;99.90
21261;DHT22;10788;47.930;9.766;2022-09-09T03:34:08;13.60;99.90
21261;DHT22;10788;47.930;9.766;2022-09-09T03:36:34;13.60;99.90
21261;DHT22;10788;47.930;9.766;2022-09-09T03:38:59;13.70;99.90
21261;DHT22;10788;47.930;9.766;2022-09-09T03:41:26;13.80;99.90
21261;DHT22;10788;47.930;9.766;2022-09-09T03:43:52;13.70;99.90
21261;DHT22;10788;47.930;9.766;2022-09-09T03:46:22;13.70;99.90
21261;DHT22;10788;47.930;9.766;2022-09-09T03:48:48;13.70;99.90
21261;DHT22;10788;47.930;9.766;2022-09-09T03:51:14;13.80;99.90
21261;DHT22;10788;47.930;9.766;2022-09-09T03:53:41;13.90;99.90
21261;DHT22;10788;47.930;9.766;2022-09-09T03:56:08;13.80;99.90
21261;DHT22;10788;47.930;9.766;2022-09-09T03:58:35;13.90;99.90
21261;DHT22;10788;47.930;9.766;2022-09-09T04:01:12;13.80;99.90
21261;DHT22;10788;47.930;9.766;2022-09-09T04:03:39;13.90;99.90
21261;DHT22;10788;47.930;9.766;2022-09-09T04:06:06;13.90;99.90
21261;DHT22;10788;47.930;9.766;2022-09-09T04:08:33;13.90;99.90
21261;DHT22;10788;47.930;9.766;2022-09-09T04:11:01;13.90;99.90
21261;DHT22;10788;47.930;9.766;2022-09-09T04:13:30;13.90;99.90
21261;DHT22;10788;47.930;9.766;2022-09-09T04:15:57;13.90;99.90
21261;DHT22;10788;47.930;9.766;2022-09-09T04:18:23;13.90;99.90
21261;DHT22;10788;47.930;9.766;2022-09-09T04:20:50;13.90;99.90
21261;DHT22;10788;47.930;9.766;2022-09-09T04:23:17;13.90;99.90
21261;DHT22;10788;47.930;9.766;2022-09-09T04:25:49;13.80;99.90
21261;DHT22;10788;47.930;9.766;2022-09-09T04:28:16;13.80;99.90
21261;DHT22;10788;47.930;9.766;2022-09-09T04:30:43;13.80;99.90
21261;DHT22;10788;47.930;9.766;2022-09-09T04:33:09;13.80;99.90
21261;DHT22;10788;47.930;9.766;2022-09-09T04:35:35;13.70;99.90
21261;DHT22;10788;47.930;9.766;2022-09-09T04:38:02;13.80;99.90
21261;DHT22;10788;47.930;9.766;2022-09-09T04:40:28;13.80;99.90
21261;DHT22;10788;47.930;9.766;2022-09-09T04:42:58;13.80;99.90
21261;DHT22;10788;47.930;9.766;2022-09-09T04:45:24;13.80;99.90
21261;DHT22;10788;47.930;9.766;2022-09-09T04:47:49;13.80;99.90
21261;DHT22;10788;47.930;9.766;2022-09-09T04:50:15;13.90;99.90
21261;DHT22;10788;47.930;9.766;2022-09-09T04:52:42;13.90;99.90
21261;DHT22;10788;47.930;9.766;2022-09-09T04:55:08;13.90;99.90
21261;DHT22;10788;47.930;9.766;2022-09-09T04:57:34;14.00;99.90
21261;DHT22;10788;47.930;9.766;2022-09-09T05:00:00;14.00;99.90
21261;DHT22;10788;47.930;9.766;2022-09-09T05:02:27;14.00;99.90
21261;DHT22;10788;47.930;9.766;2022-09-09T05:04:52;14.00;99.90
21261;DHT22;10788;47.930;9.766;2022-09-09T05:07:18;14.10;99.90
21261;DHT22;10788;47.930;9.766;2022-09-09T05:09:44;14.10;99.90
21261;DHT22;10788;47.930;9.766;2022-09-09T05:12:10;14.10;99.90
21261;DHT22;10788;47.930;9.766;2022-09-09T05:14:36;14.10;99.90
21261;DHT22;10788;47.930;9.766;2022-09-09T05:17:03;14.10;99.90
21261;DHT22;10788;47.930;9.766;2022-09-09T05:19:28;14.20;99.90
21261;DHT22;10788;47.930;9.766;2022-09-09T05:21:56;14.20;99.90
21261;DHT22;10788;47.930;9.766;2022-09-09T05:24:22;14.20;99.90
21261;DHT22;10788;47.930;9.766;2022-09-09T05:26:48;14.20;99.90
21261;DHT22;10788;47.930;9.766;2022-09-09T05:29:14;14.20;99.90
21261;DHT22;10788;47.930;9.766;2022-09-09T05:31:39;14.20;99.90
21261;DHT22;10788;47.930;9.766;2022-09-09T05:34:06;14.20;99.90
21261;DHT22;10788;47.930;9.766;2022-09-09T05:36:32;14.20;99.90
21261;DHT22;10788;47.930;9.766;2022-09-09T05:38:57;14.30;99.90
21261;DHT22;10788;47.930;9.766;2022-09-09T05:41:23;14.20;99.90
21261;DHT22;10788;47.930;9.766;2022-09-09T05:43:49;14.30;99.90
21261;DHT22;10788;47.930;9.766;2022-09-09T05:46:20;14.30;99.90
21261;DHT22;10788;47.930;9.766;2022-09-09T05:48:47;14.30;99.90
21261;DHT22;10788;47.930;9.766;2022-09-09T05:51:15;14.30;99.90
21261;DHT22;10788;47.930;9.766;2022-09-09T05:53:42;14.30;99.90
21261;DHT22;10788;47.930;9.766;2022-09-09T05:56:19;14.30;99.90
21261;DHT22;10788;47.930;9.766;2022-09-09T05:58:46;14.40;99.90
21261;DHT22;10788;47.930;9.766;2022-09-09T06:01:16;14.20;99.90
21261;DHT22;10788;47.930;9.766;2022-09-09T06:03:44;14.30;99.90
21261;DHT22;10788;47.930;9.766;2022-09-09T06:06:18;14.30;99.90
21261;DHT22;10788;47.930;9.766;2022-09-09T06:08:46;14.30;99.90
21261;DHT22;10788;47.930;9.766;2022-09-09T06:11:18;14.20;99.90
21261;DHT22;10788;47.930;9.766;2022-09-09T06:13:44;14.10;99.90
21261;DHT22;10788;47.930;9.766;2022-09-09T06:16:14;14.20;99.90
21261;DHT22;10788;47.930;9.766;2022-09-09T06:18:40;14.10;99.90
21261;DHT22;10788;47.930;9.766;2022-09-09T06:21:52;14.00;99.90
21261;DHT22;10788;47.930;9.766;2022-09-09T06:23:53;14.00;99.90
21261;DHT22;10788;47.930;9.766;2022-09-09T06:26:27;14.00;99.90
21261;DHT22;10788;47.930;9.766;2022-09-09T06:28:54;14.00;99.90
21261;DHT22;10788;47.930;9.766;2022-09-09T06:31:22;14.10;99.90
21261;DHT22;10788;47.930;9.766;2022-09-09T06:33:49;14.10;99.90
21261;DHT22;10788;47.930;9.766;2022-09-09T06:36:18;14.00;99.90
21261;DHT22;10788;47.930;9.766;2022-09-09T06:38:45;14.10;99.90
21261;DHT22;10788;47.930;9.766;2022-09-09T06:41:12;14.10;99.90
21261;DHT22;10788;47.930;9.766;2022-09-09T06:43:38;14.10;99.90
21261;DHT22;10788;47.930;9.766;2022-09-09T06:46:10;14.20;99.90
21261;DHT22;10788;47.930;9.766;2022-09-09T06:48:36;14.30;99.90
21261;DHT22;10788;47.930;9.766;2022-09-09T06:51:05;14.30;99.90
21261;DHT22;10788;47.930;9.766;2022-09-09T06:53:33;14.40;99.90
21261;DHT22;10788;47.930;9.766;2022-09-09T06:58:35;14.50;99.90
21261;DHT22;10788;47.930;9.766;2022-09-09T07:01:03;14.50;99.90
21261;DHT22;10788;47.930;9.766;2022-09-09T07:03:29;14.40;99.90
21261;DHT22;10788;47.930;9.766;2022-09-09T07:05:55;14.40;99.90
21261;DHT22;10788;47.930;9.766;2022-09-09T07:08:21;14.40;99.90
21261;DHT22;10788;47.930;9.766;2022-09-09T07:10:47;14.40;99.90
21261;DHT22;10788;47.930;9.766;2022-09-09T07:13:13;14.30;99.90
21261;DHT22;10788;47.930;9.766;2022-09-09T07:15:41;14.40;99.90
21261;DHT22;10788;47.930;9.766;2022-09-09T07:18:07;14.50;99.90
21261;DHT22;10788;47.930;9.766;2022-09-09T07:20:34;14.50;99.90
21261;DHT22;10788;47.930;9.766;2022-09-09T07:22:59;14.60;99.90
21261;DHT22;10788;47.930;9.766;2022-09-09T07:25:25;14.70;99.90
21261;DHT22;10788;47.930;9.766;2022-09-09T07:27:54;14.60;99.90
21261;DHT22;10788;47.930;9.766;2022-09-09T07:30:20;14.70;99.90
21261;DHT22;10788;47.930;9.766;2022-09-09T07:32:46;14.70;99.90
21261;DHT22;10788;47.930;9.766;2022-09-09T07:35:11;14.60;99.90
21261;DHT22;10788;47.930;9.766;2022-09-09T07:37:37;14.80;99.90
21261;DHT22;10788;47.930;9.766;2022-09-09T07:40:04;14.80;99.90
21261;DHT22;10788;47.930;9.766;2022-09-09T07:42:30;14.80;99.90
21261;DHT22;10788;47.930;9.766;2022-09-09T07:44:56;14.90;99.90
21261;DHT22;10788;47.930;9.766;2022-09-09T07:47:22;15.00;99.90
21261;DHT22;10788;47.930;9.766;2022-09-09T07:49:50;15.00;99.90
21261;DHT22;10788;47.930;9.766;2022-09-09T07:52:15;14.90;99.90
21261;DHT22;10788;47.930;9.766;2022-09-09T07:54:41;15.20;99.90
21261;DHT22;10788;47.930;9.766;2022-09-09T07:57:07;15.40;99.90
21261;DHT22;10788;47.930;9.766;2022-09-09T07:59:33;15.30;99.90
21261;DHT22;10788;47.930;9.766;2022-09-09T08:01:59;15.60;99.90
21261;DHT22;10788;47.930;9.766;2022-09-09T08:04:25;15.60;99.90
21261;DHT22;10788;47.930;9.766;2022-09-09T08:06:58;15.70;99.90
21261;DHT22;10788;47.930;9.766;2022-09-09T08:09:25;15.60;99.90
21261;DHT22;10788;47.930;9.766;2022-09-09T08:11:52;15.70;99.90
21261;DHT22;10788;47.930;9.766;2022-09-09T08:14:18;15.70;99.90
21261;DHT22;10788;47.930;9.766;2022-09-09T08:16:46;15.70;99.90
21261;DHT22;10788;47.930;9.766;2022-09-09T08:19:12;15.70;99.90
21261;DHT22;10788;47.930;9.766;2022-09-09T08:21:41;15.80;99.90
21261;DHT22;10788;47.930;9.766;2022-09-09T08:24:09;15.80;99.90
21261;DHT22;10788;47.930;9.766;2022-09-09T08:26:41;16.00;99.90
21261;DHT22;10788;47.930;9.766;2022-09-09T08:29:09;16.10;99.90
21261;DHT22;10788;47.930;9.766;2022-09-09T08:34:07;16.50;99.90
21261;DHT22;10788;47.930;9.766;2022-09-09T08:36:35;16.90;99.90
21261;DHT22;10788;47.930;9.766;2022-09-09T08:39:03;16.90;99.90
21261;DHT22;10788;47.930;9.766;2022-09-09T08:54:49;16.60;99.90
21261;DHT22;10788;47.930;9.766;2022-09-09T08:57:23;16.50;99.90
21261;DHT22;10788;47.930;9.766;2022-09-09T08:59:52;16.50;99.90
21261;DHT22;10788;47.930;9.766;2022-09-09T09:02:50;16.60;99.90
21261;DHT22;10788;47.930;9.766;2022-09-09T09:05:36;16.70;99.90
21261;DHT22;10788;47.930;9.766;2022-09-09T09:10:49;17.00;99.90
21261;DHT22;10788;47.930;9.766;2022-09-09T09:19:04;17.30;99.90
21261;DHT22;10788;47.930;9.766;2022-09-09T09:24:29;17.20;99.90
21261;DHT22;10788;47.930;9.766;2022-09-09T09:27:39;17.20;99.90
21261;DHT22;10788;47.930;9.766;2022-09-09T09:31:11;17.30;99.90
21261;DHT22;10788;47.930;9.766;2022-09-09T09:34:08;17.50;99.90
21261;DHT22;10788;47.930;9.766;2022-09-09T09:36:43;17.70;99.90
21261;DHT22;10788;47.930;9.766;2022-09-09T09:39:29;17.80;99.90
21261;DHT22;10788;47.930;9.766;2022-09-09T09:41:55;17.60;99.90
21261;DHT22;10788;47.930;9.766;2022-09-09T09:44:32;17.50;99.90
21261;DHT22;10788;47.930;9.766;2022-09-09T09:49:32;17.50;99.90
21261;DHT22;10788;47.930;9.766;2022-09-09T09:52:03;17.50;99.90
21261;DHT22;10788;47.930;9.766;2022-09-09T09:54:31;17.70;99.90
21261;DHT22;10788;47.930;9.766;2022-09-09T09:57:09;17.80;99.90
21261;DHT22;10788;47.930;9.766;2022-09-09T09:59:35;18.00;99.90
21261;DHT22;10788;47.930;9.766;2022-09-09T10:04:40;18.00;99.90
21261;DHT22;10788;47.930;9.766;2022-09-09T10:07:20;18.30;99.90
21261;DHT22;10788;47.930;9.766;2022-09-09T10:09:58;18.50;99.90
21261;DHT22;10788;47.930;9.766;2022-09-09T10:21:07;19.60;99.90
21261;DHT22;10788;47.930;9.766;2022-09-09T10:40:38;20.70;99.90
21261;DHT22;10788;47.930;9.766;2022-09-09T10:50:50;20.80;99.90
21261;DHT22;10788;47.930;9.766;2022-09-09T10:56:09;21.20;99.90
21261;DHT22;10788;47.930;9.766;2022-09-09T10:59:03;21.50;99.90
21261;DHT22;10788;47.930;9.766;2022-09-09T11:01:51;21.40;99.90
21261;DHT22;10788;47.930;9.766;2022-09-09T11:06:58;21.30;99.90
21261;DHT22;10788;47.930;9.766;2022-09-09T11:09:32;21.30;99.90
21261;DHT22;10788;47.930;9.766;2022-09-09T11:12:00;21.40;99.90
21261;DHT22;10788;47.930;9.766;2022-09-09T11:14:41;21.40;99.90
21261;DHT22;10788;47.930;9.766;2022-09-09T11:19:47;21.40;99.90
21261;DHT22;10788;47.930;9.766;2022-09-09T11:24:45;21.50;99.90
21261;DHT22;10788;47.930;9.766;2022-09-09T11:27:25;21.50;99.90
21261;DHT22;10788;47.930;9.766;2022-09-09T11:41:05;21.50;99.90
21261;DHT22;10788;47.930;9.766;2022-09-09T11:43:46;21.50;99.90
21261;DHT22;10788;47.930;9.766;2022-09-09T11:46:15;21.50;99.90
21261;DHT22;10788;47.930;9.766;2022-09-09T11:48:57;21.30;99.90
21261;DHT22;10788;47.930;9.766;2022-09-09T11:51:28;21.50;99.90
21261;DHT22;10788;47.930;9.766;2022-09-09T11:54:00;21.50;99.90
21261;DHT22;10788;47.930;9.766;2022-09-09T11:56:43;21.70;99.90
21261;DHT22;10788;47.930;9.766;2022-09-09T12:09:44;20.90;99.90
21261;DHT22;10788;47.930;9.766;2022-09-09T12:19:40;21.10;99.90
21261;DHT22;10788;47.930;9.766;2022-09-09T12:31:12;20.40;99.90
21261;DHT22;10788;47.930;9.766;2022-09-09T12:33:43;20.40;99.90
21261;DHT22;10788;47.930;9.766;2022-09-09T12:36:27;20.40;99.90
21261;DHT22;10788;47.930;9.766;2022-09-09T12:38:54;20.50;99.90
21261;DHT22;10788;47.930;9.766;2022-09-09T12:41:27;20.40;99.90
21261;DHT22;10788;47.930;9.766;2022-09-09T12:44:09;20.40;99.90
21261;DHT22;10788;47.930;9.766;2022-09-09T12:46:45;20.40;99.90
21261;DHT22;10788;47.930;9.766;2022-09-09T12:49:37;20.40;99.90
21261;DHT22;10788;47.930;9.766;2022-09-09T12:52:36;20.60;99.90
21261;DHT22;10788;47.930;9.766;2022-09-09T12:55:05;20.60;99.90
21261;DHT22;10788;47.930;9.766;2022-09-09T12:57:36;20.60;99.90
21261;DHT22;10788;47.930;9.766;2022-09-09T13:00:14;20.50;99.90
21261;DHT22;10788;47.930;9.766;2022-09-09T13:02:50;20.60;99.90
21261;DHT22;10788;47.930;9.766;2022-09-09T13:05:22;20.70;99.90
21261;DHT22;10788;47.930;9.766;2022-09-09T13:07:48;20.80;99.90
21261;DHT22;10788;47.930;9.766;2022-09-09T13:10:21;20.80;99.90
21261;DHT22;10788;47.930;9.766;2022-09-09T13:12:48;20.80;99.90
21261;DHT22;10788;47.930;9.766;2022-09-09T13:15:20;20.80;99.90
21261;DHT22;10788;47.930;9.766;2022-09-09T13:17:51;20.60;99.90
21261;DHT22;10788;47.930;9.766;2022-09-09T13:20:19;20.50;99.90
21261;DHT22;10788;47.930;9.766;2022-09-09T13:22:47;20.50;99.90
21261;DHT22;10788;47.930;9.766;2022-09-09T13:25:24;20.40;99.90
21261;DHT22;10788;47.930;9.766;2022-09-09T13:28:00;20.40;99.90
21261;DHT22;10788;47.930;9.766;2022-09-09T13:30:36;20.60;99.90
21261;DHT22;10788;47.930;9.766;2022-09-09T13:35:56;20.70;99.90
21261;DHT22;10788;47.930;9.766;2022-09-09T13:38:22;20.50;99.90
21261;DHT22;10788;47.930;9.766;2022-09-09T13:41:04;20.50;99.90
21261;DHT22;10788;47.930;9.766;2022-09-09T13:43:44;20.50;99.90
21261;DHT22;10788;47.930;9.766;2022-09-09T13:51:45;20.20;99.90
21261;DHT22;10788;47.930;9.766;2022-09-09T13:54:13;20.30;99.90
21261;DHT22;10788;47.930;9.766;2022-09-09T13:56:40;20.40;99.90
21261;DHT22;10788;47.930;9.766;2022-09-09T13:59:18;20.40;99.90
21261;DHT22;10788;47.930;9.766;2022-09-09T14:01:45;20.40;99.90
21261;DHT22;10788;47.930;9.766;2022-09-09T14:04:11;20.40;99.90
21261;DHT22;10788;47.930;9.766;2022-09-09T14:06:37;20.50;99.90
21261;DHT22;10788;47.930;9.766;2022-09-09T14:09:05;20.40;99.90
21261;DHT22;10788;47.930;9.766;2022-09-09T14:11:31;20.30;99.90
21261;DHT22;10788;47.930;9.766;2022-09-09T14:13:57;20.30;99.90
21261;DHT22;10788;47.930;9.766;2022-09-09T14:16:22;20.40;99.90
21261;DHT22;10788;47.930;9.766;2022-09-09T14:18:48;20.40;99.90
21261;DHT22;10788;47.930;9.766;2022-09-09T14:21:14;20.40;99.90
21261;DHT22;10788;47.930;9.766;2022-09-09T14:23:41;20.40;99.90
21261;DHT22;10788;47.930;9.766;2022-09-09T14:26:07;20.40;99.90
21261;DHT22;10788;47.930;9.766;2022-09-09T14:28:33;20.40;99.90
21261;DHT22;10788;47.930;9.766;2022-09-09T14:31:00;20.50;99.90
21261;DHT22;10788;47.930;9.766;2022-09-09T14:33:26;20.40;99.90
21261;DHT22;10788;47.930;9.766;2022-09-09T14:35:58;20.40;99.90
21261;DHT22;10788;47.930;9.766;2022-09-09T14:38:25;20.40;99.90
21261;DHT22;10788;47.930;9.766;2022-09-09T14:40:51;20.30;99.90
21261;DHT22;10788;47.930;9.766;2022-09-09T14:43:16;20.30;99.90
21261;DHT22;10788;47.930;9.766;2022-09-09T14:45:42;20.30;99.90
21261;DHT22;10788;47.930;9.766;2022-09-09T14:48:08;20.40;99.90
21261;DHT22;10788;47.930;9.766;2022-09-09T14:50:34;20.50;99.90
21261;DHT22;10788;47.930;9.766;2022-09-09T14:53:02;20.30;99.90
21261;DHT22;10788;47.930;9.766;2022-09-09T14:55:27;20.20;99.90
21261;DHT22;10788;47.930;9.766;2022-09-09T14:57:54;20.10;99.90
21261;DHT22;10788;47.930;9.766;2022-09-09T15:00:20;20.20;99.90
21261;DHT22;10788;47.930;9.766;2022-09-09T15:02:45;20.40;99.90
21261;DHT22;10788;47.930;9.766;2022-09-09T15:05:11;20.50;99.90
21261;DHT22;10788;47.930;9.766;2022-09-09T15:07:37;20.50;99.90
21261;DHT22;10788;47.930;9.766;2022-09-09T15:10:03;20.40;99.90
21261;DHT22;10788;47.930;9.766;2022-09-09T15:12:30;20.40;99.90
21261;DHT22;10788;47.930;9.766;2022-09-09T15:14:55;20.30;99.90
21261;DHT22;10788;47.930;9.766;2022-09-09T15:17:21;20.40;99.90
21261;DHT22;10788;47.930;9.766;2022-09-09T15:19:47;20.30;99.90
21261;DHT22;10788;47.930;9.766;2022-09-09T15:22:15;20.30;99.90
21261;DHT22;10788;47.930;9.766;2022-09-09T15:24:41;20.20;99.90
21261;DHT22;10788;47.930;9.766;2022-09-09T15:27:07;20.30;99.90
21261;DHT22;10788;47.930;9.766;2022-09-09T15:29:32;20.40;99.90
21261;DHT22;10788;47.930;9.766;2022-09-09T15:31:58;20.30;99.90
21261;DHT22;10788;47.930;9.766;2022-09-09T15:34:24;20.20;99.90
21261;DHT22;10788;47.930;9.766;2022-09-09T15:36:50;20.20;99.90
21261;DHT22;10788;47.930;9.766;2022-09-09T15:39:17;20.20;99.90
21261;DHT22;10788;47.930;9.766;2022-09-09T15:41:46;20.30;99.90
21261;DHT22;10788;47.930;9.766;2022-09-09T15:44:13;20.20;99.90
21261;DHT22;10788;47.930;9.766;2022-09-09T15:46:44;20.10;99.90
21261;DHT22;10788;47.930;9.766;2022-09-09T15:49:14;20.20;99.90
21261;DHT22;10788;47.930;9.766;2022-09-09T15:51:42;20.20;99.90
21261;DHT22;10788;47.930;9.766;2022-09-09T15:54:27;20.10;99.90
21261;DHT22;10788;47.930;9.766;2022-09-09T15:56:55;20.10;99.90
21261;DHT22;10788;47.930;9.766;2022-09-09T15:59:23;20.00;99.90
21261;DHT22;10788;47.930;9.766;2022-09-09T16:01:48;20.00;99.90
21261;DHT22;10788;47.930;9.766;2022-09-09T16:04:17;20.00;99.90
21261;DHT22;10788;47.930;9.766;2022-09-09T16:07:09;19.90;99.90
21261;DHT22;10788;47.930;9.766;2022-09-09T16:09:34;19.80;99.90
21261;DHT22;10788;47.930;9.766;2022-09-09T16:12:02;19.90;99.90
21261;DHT22;10788;47.930;9.766;2022-09-09T16:14:28;19.70;99.90
21261;DHT22;10788;47.930;9.766;2022-09-09T16:16:54;19.60;99.90
21261;DHT22;10788;47.930;9.766;2022-09-09T16:19:19;19.50;99.90
21261;DHT22;10788;47.930;9.766;2022-09-09T16:21:47;19.40;99.90
21261;DHT22;10788;47.930;9.766;2022-09-09T16:24:15;19.30;99.90
21261;DHT22;10788;47.930;9.766;2022-09-09T16:26:43;19.40;99.90
21261;DHT22;10788;47.930;9.766;2022-09-09T16:29:13;19.30;99.90
21261;DHT22;10788;47.930;9.766;2022-09-09T16:31:39;19.30;99.90
21261;DHT22;10788;47.930;9.766;2022-09-09T16:34:06;19.30;99.90
21261;DHT22;10788;47.930;9.766;2022-09-09T16:36:33;19.30;99.90
21261;DHT22;10788;47.930;9.766;2022-09-09T16:39:05;19.30;99.90
21261;DHT22;10788;47.930;9.766;2022-09-09T16:41:31;19.20;99.90
21261;DHT22;10788;47.930;9.766;2022-09-09T16:43:59;19.20;99.90
21261;DHT22;10788;47.930;9.766;2022-09-09T16:46:26;19.30;99.90
21261;DHT22;10788;47.930;9.766;2022-09-09T16:48:53;19.30;99.90
21261;DHT22;10788;47.930;9.766;2022-09-09T16:51:28;19.20;99.90
21261;DHT22;10788;47.930;9.766;2022-09-09T16:53:55;19.20;99.90
21261;DHT22;10788;47.930;9.766;2022-09-09T16:56:25;19.00;99.90
21261;DHT22;10788;47.930;9.766;2022-09-09T16:59:00;19.00;99.90
21261;DHT22;10788;47.930;9.766;2022-09-09T17:01:28;19.10;99.90
21261;DHT22;10788;47.930;9.766;2022-09-09T17:03:58;19.10;99.90
21261;DHT22;10788;47.930;9.766;2022-09-09T17:06:24;19.00;99.90
21261;DHT22;10788;47.930;9.766;2022-09-09T17:08:55;19.00;99.90
21261;DHT22;10788;47.930;9.766;2022-09-09T17:11:20;18.80;99.90
21261;DHT22;10788;47.930;9.766;2022-09-09T17:13:47;18.80;99.90
21261;DHT22;10788;47.930;9.766;2022-09-09T17:16:14;18.80;99.90
21261;DHT22;10788;47.930;9.766;2022-09-09T17:18:40;18.80;99.90
21261;DHT22;10788;47.930;9.766;2022-09-09T17:21:08;18.80;99.90
21261;DHT22;10788;47.930;9.766;2022-09-09T17:23:36;18.60;99.90
21261;DHT22;10788;47.930;9.766;2022-09-09T17:26:07;18.60;99.90
21261;DHT22;10788;47.930;9.766;2022-09-09T17:28:38;18.60;99.90
21261;DHT22;10788;47.930;9.766;2022-09-09T17:31:05;18.60;99.90
21261;DHT22;10788;47.930;9.766;2022-09-09T17:33:32;18.50;99.90
21261;DHT22;10788;47.930;9.766;2022-09-09T17:35:59;18.50;99.90
21261;DHT22;10788;47.930;9.766;2022-09-09T17:38:27;18.40;99.90
21261;DHT22;10788;47.930;9.766;2022-09-09T17:41:08;18.40;99.90
21261;DHT22;10788;47.930;9.766;2022-09-09T17:43:35;18.40;99.90
21261;DHT22;10788;47.930;9.766;2022-09-09T17:46:13;18.30;99.90
21261;DHT22;10788;47.930;9.766;2022-09-09T17:48:40;18.30;99.90
21261;DHT22;10788;47.930;9.766;2022-09-09T17:51:12;18.30;99.90
21261;DHT22;10788;47.930;9.766;2022-09-09T17:53:40;18.20;99.90
21261;DHT22;10788;47.930;9.766;2022-09-09T17:56:08;18.20;99.90
21261;DHT22;10788;47.930;9.766;2022-09-09T17:58:34;18.20;99.90
21261;DHT22;10788;47.930;9.766;2022-09-09T18:01:09;18.20;99.90
21261;DHT22;10788;47.930;9.766;2022-09-09T18:03:40;18.10;99.90
21261;DHT22;10788;47.930;9.766;2022-09-09T18:06:09;18.10;99.90
21261;DHT22;10788;47.930;9.766;2022-09-09T18:08:39;18.00;99.90
21261;DHT22;10788;47.930;9.766;2022-09-09T18:11:05;17.90;99.90
21261;DHT22;10788;47.930;9.766;2022-09-09T18:13:32;17.70;99.90
21261;DHT22;10788;47.930;9.766;2022-09-09T18:15:57;17.60;99.90
21261;DHT22;10788;47.930;9.766;2022-09-09T18:18:24;17.60;99.90
21261;DHT22;10788;47.930;9.766;2022-09-09T18:21:03;17.50;99.90
21261;DHT22;10788;47.930;9.766;2022-09-09T18:23:36;17.50;99.90
21261;DHT22;10788;47.930;9.766;2022-09-09T18:26:10;17.40;99.90
21261;DHT22;10788;47.930;9.766;2022-09-09T18:28:37;17.40;99.90
21261;DHT22;10788;47.930;9.766;2022-09-09T18:31:08;17.30;99.90
21261;DHT22;10788;47.930;9.766;2022-09-09T18:33:39;17.30;99.90
21261;DHT22;10788;47.930;9.766;2022-09-09T18:36:24;17.30;99.90
21261;DHT22;10788;47.930;9.766;2022-09-09T18:38:50;17.30;99.90
21261;DHT22;10788;47.930;9.766;2022-09-09T18:43:46;17.10;99.90